sensor_id;sensor_type;location;lat;lon;timestamp;P1;durP1;ratioP1;P2;durP2;ratioP2
5379;SDS011;2713;42.680;23.310;2023-09-18T00:00:17;21.20;;;17.00;;
5379;SDS011;2713;42.680;23.310;2023-09-18T00:02:46;25.10;;;17.97;;
5379;SDS011;2713;42.680;23.310;2023-09-18T00:05:13;25.47;;;18.53;;
5379;SDS011;2713;42.680;23.310;2023-09-18T00:07:41;25.87;;;18.17;;
5379;SDS011;2713;42.680;23.310;2023-09-18T00:10:08;26.20;;;20.27;;
5379;SDS011;2713;42.680;23.310;2023-09-18T00:12:35;23.00;;;19.03;;
5379;SDS011;2713;42.680;23.310;2023-09-18T00:15:02;26.07;;;19.57;;
5379;SDS011;2713;42.680;23.310;2023-09-18T00:17:32;26.63;;;20.80;;
5379;SDS011;2713;42.680;23.310;2023-09-18T00:19:59;26.13;;;19.57;;
5379;SDS011;2713;42.680;23.310;2023-09-18T00:22:26;26.23;;;20.80;;
5379;SDS011;2713;42.680;23.310;2023-09-18T00:24:53;25.50;;;21.03;;
5379;SDS011;2713;42.680;23.310;2023-09-18T00:27:20;22.50;;;19.70;;
5379;SDS011;2713;42.680;23.310;2023-09-18T00:29:47;29.77;;;21.90;;
5379;SDS011;2713;42.680;23.310;2023-09-18T00:32:13;29.73;;;21.37;;
5379;SDS011;2713;42.680;23.310;2023-09-18T00:34:42;27.80;;;20.30;;
5379;SDS011;2713;42.680;23.310;2023-09-18T00:37:08;26.53;;;20.43;;
5379;SDS011;2713;42.680;23.310;2023-09-18T00:39:37;24.37;;;20.50;;
5379;SDS011;2713;42.680;23.310;2023-09-18T00:42:04;26.37;;;20.60;;
5379;SDS011;2713;42.680;23.310;2023-09-18T00:44:31;25.97;;;20.53;;
5379;SDS011;2713;42.680;23.310;2023-09-18T00:46:58;27.93;;;22.13;;
5379;SDS011;2713;42.680;23.310;2023-09-18T00:49:25;26.03;;;21.47;;
5379;SDS011;2713;42.680;23.310;2023-09-18T00:51:53;28.20;;;21.80;;
5379;SDS011;2713;42.680;23.310;2023-09-18T00:54:20;26.87;;;20.97;;
5379;SDS011;2713;42.680;23.310;2023-09-18T00:56:47;29.97;;;21.63;;
5379;SDS011;2713;42.680;23.310;2023-09-18T00:59:19;31.07;;;22.57;;
5379;SDS011;2713;42.680;23.310;2023-09-18T01:01:46;27.47;;;22.40;;
5379;SDS011;2713;42.680;23.310;2023-09-18T01:04:16;30.00;;;21.93;;
5379;SDS011;2713;42.680;23.310;2023-09-18T01:06:43;27.73;;;22.90;;
5379;SDS011;2713;42.680;23.310;2023-09-18T01:09:12;25.50;;;20.07;;
5379;SDS011;2713;42.680;23.310;2023-09-18T01:11:43;26.40;;;19.97;;
5379;SDS011;2713;42.680;23.310;2023-09-18T01:14:18;25.43;;;21.27;;
5379;SDS011;2713;42.680;23.310;2023-09-18T01:16:48;29.83;;;23.10;;
5379;SDS011;2713;42.680;23.310;2023-09-18T01:19:33;27.10;;;19.40;;
5379;SDS011;2713;42.680;23.310;2023-09-18T01:22:01;25.07;;;19.70;;
5379;SDS011;2713;42.680;23.310;2023-09-18T01:24:29;21.97;;;18.00;;
5379;SDS011;2713;42.680;23.310;2023-09-18T01:26:56;23.50;;;17.47;;
5379;SDS011;2713;42.680;23.310;2023-09-18T01:29:23;19.20;;;16.80;;
5379;SDS011;2713;42.680;23.310;2023-09-18T01:34:28;18.97;;;15.87;;
5379;SDS011;2713;42.680;23.310;2023-09-18T01:36:58;19.50;;;15.47;;
5379;SDS011;2713;42.680;23.310;2023-09-18T01:39:27;17.10;;;15.30;;
5379;SDS011;2713;42.680;23.310;2023-09-18T01:41:58;21.03;;;14.90;;
5379;SDS011;2713;42.680;23.310;2023-09-18T01:44:26;19.83;;;14.47;;
5379;SDS011;2713;42.680;23.310;2023-09-18T01:46:53;20.17;;;14.50;;
5379;SDS011;2713;42.680;23.310;2023-09-18T01:49:28;16.57;;;14.63;;
5379;SDS011;2713;42.680;23.310;2023-09-18T01:51:56;18.57;;;14.40;;
5379;SDS011;2713;42.680;23.310;2023-09-18T01:54:23;16.70;;;13.83;;
5379;SDS011;2713;42.680;23.310;2023-09-18T01:56:51;21.43;;;14.17;;
5379;SDS011;2713;42.680;23.310;2023-09-18T01:59:20;18.27;;;14.77;;
5379;SDS011;2713;42.680;23.310;2023-09-18T02:01:48;20.47;;;15.47;;
5379;SDS011;2713;42.680;23.310;2023-09-18T02:04:15;17.37;;;14.30;;
5379;SDS011;2713;42.680;23.310;2023-09-18T02:06:44;15.80;;;14.10;;
5379;SDS011;2713;42.680;23.310;2023-09-18T02:09:11;17.70;;;14.83;;
5379;SDS011;2713;42.680;23.310;2023-09-18T02:11:38;18.17;;;13.80;;
5379;SDS011;2713;42.680;23.310;2023-09-18T02:14:06;17.77;;;14.80;;
5379;SDS011;2713;42.680;23.310;2023-09-18T02:16:36;21.70;;;14.90;;
5379;SDS011;2713;42.680;23.310;2023-09-18T02:19:06;17.00;;;15.20;;
5379;SDS011;2713;42.680;23.310;2023-09-18T02:21:33;21.53;;;16.30;;
5379;SDS011;2713;42.680;23.310;2023-09-18T02:24:00;22.20;;;16.70;;
5379;SDS011;2713;42.680;23.310;2023-09-18T02:26:27;20.50;;;16.87;;
5379;SDS011;2713;42.680;23.310;2023-09-18T02:28:54;18.77;;;15.53;;
5379;SDS011;2713;42.680;23.310;2023-09-18T02:31:29;20.17;;;16.90;;
5379;SDS011;2713;42.680;23.310;2023-09-18T02:33:58;22.50;;;16.40;;
5379;SDS011;2713;42.680;23.310;2023-09-18T02:36:24;21.50;;;16.30;;
5379;SDS011;2713;42.680;23.310;2023-09-18T02:38:51;20.40;;;16.07;;
5379;SDS011;2713;42.680;23.310;2023-09-18T02:41:18;20.90;;;16.67;;
5379;SDS011;2713;42.680;23.310;2023-09-18T02:43:45;19.40;;;16.17;;
5379;SDS011;2713;42.680;23.310;2023-09-18T02:46:12;17.77;;;15.87;;
5379;SDS011;2713;42.680;23.310;2023-09-18T02:48:39;17.97;;;15.30;;
5379;SDS011;2713;42.680;23.310;2023-09-18T02:51:07;18.37;;;15.07;;
5379;SDS011;2713;42.680;23.310;2023-09-18T02:53:34;18.60;;;15.10;;
5379;SDS011;2713;42.680;23.310;2023-09-18T02:56:01;19.80;;;14.97;;
5379;SDS011;2713;42.680;23.310;2023-09-18T02:58:28;15.97;;;14.20;;
5379;SDS011;2713;42.680;23.310;2023-09-18T03:00:55;20.03;;;15.47;;
5379;SDS011;2713;42.680;23.310;2023-09-18T03:03:23;17.03;;;14.33;;
5379;SDS011;2713;42.680;23.310;2023-09-18T03:05:51;19.27;;;14.10;;
5379;SDS011;2713;42.680;23.310;2023-09-18T03:08:19;18.00;;;14.23;;
5379;SDS011;2713;42.680;23.310;2023-09-18T03:10:46;18.73;;;13.73;;
5379;SDS011;2713;42.680;23.310;2023-09-18T03:13:14;19.73;;;13.87;;
5379;SDS011;2713;42.680;23.310;2023-09-18T03:15:44;17.27;;;13.80;;
5379;SDS011;2713;42.680;23.310;2023-09-18T03:18:11;19.43;;;15.20;;
5379;SDS011;2713;42.680;23.310;2023-09-18T03:20:38;21.90;;;15.50;;
5379;SDS011;2713;42.680;23.310;2023-09-18T03:23:05;18.50;;;14.93;;
5379;SDS011;2713;42.680;23.310;2023-09-18T03:25:35;26.60;;;15.20;;
5379;SDS011;2713;42.680;23.310;2023-09-18T03:28:02;18.60;;;15.30;;
5379;SDS011;2713;42.680;23.310;2023-09-18T03:30:31;20.93;;;16.33;;
5379;SDS011;2713;42.680;23.310;2023-09-18T03:32:58;19.23;;;15.10;;
5379;SDS011;2713;42.680;23.310;2023-09-18T03:35:28;18.60;;;15.80;;
5379;SDS011;2713;42.680;23.310;2023-09-18T03:37:55;21.63;;;16.80;;
5379;SDS011;2713;42.680;23.310;2023-09-18T03:40:22;18.67;;;15.30;;
5379;SDS011;2713;42.680;23.310;2023-09-18T03:42:50;19.80;;;16.00;;
5379;SDS011;2713;42.680;23.310;2023-09-18T03:45:17;18.50;;;16.40;;
5379;SDS011;2713;42.680;23.310;2023-09-18T03:47:47;20.20;;;17.00;;
5379;SDS011;2713;42.680;23.310;2023-09-18T03:50:15;21.33;;;17.03;;
5379;SDS011;2713;42.680;23.310;2023-09-18T03:52:42;22.47;;;16.60;;
5379;SDS011;2713;42.680;23.310;2023-09-18T03:55:09;22.60;;;17.53;;
5379;SDS011;2713;42.680;23.310;2023-09-18T03:57:36;27.60;;;17.13;;
5379;SDS011;2713;42.680;23.310;2023-09-18T04:00:05;23.20;;;17.73;;
5379;SDS011;2713;42.680;23.310;2023-09-18T04:02:40;26.53;;;17.90;;
5379;SDS011;2713;42.680;23.310;2023-09-18T04:05:07;21.23;;;17.47;;
5379;SDS011;2713;42.680;23.310;2023-09-18T04:07:34;23.43;;;17.50;;
5379;SDS011;2713;42.680;23.310;2023-09-18T04:10:01;21.37;;;17.50;;
5379;SDS011;2713;42.680;23.310;2023-09-18T04:12:28;26.23;;;18.00;;
5379;SDS011;2713;42.680;23.310;2023-09-18T04:14:55;23.60;;;18.50;;
5379;SDS011;2713;42.680;23.310;2023-09-18T04:17:24;23.03;;;18.43;;
5379;SDS011;2713;42.680;23.310;2023-09-18T04:19:51;27.00;;;19.90;;
5379;SDS011;2713;42.680;23.310;2023-09-18T04:22:18;24.23;;;19.30;;
5379;SDS011;2713;42.680;23.310;2023-09-18T04:24:44;27.40;;;19.53;;
5379;SDS011;2713;42.680;23.310;2023-09-18T04:27:11;28.63;;;18.20;;
5379;SDS011;2713;42.680;23.310;2023-09-18T04:29:38;21.87;;;17.60;;
5379;SDS011;2713;42.680;23.310;2023-09-18T04:32:05;26.80;;;19.50;;
5379;SDS011;2713;42.680;23.310;2023-09-18T04:34:34;25.77;;;19.27;;
5379;SDS011;2713;42.680;23.310;2023-09-18T04:37:01;25.87;;;18.70;;
5379;SDS011;2713;42.680;23.310;2023-09-18T04:39:29;28.50;;;19.10;;
5379;SDS011;2713;42.680;23.310;2023-09-18T04:42:00;24.07;;;18.80;;
5379;SDS011;2713;42.680;23.310;2023-09-18T04:44:30;23.33;;;17.70;;
5379;SDS011;2713;42.680;23.310;2023-09-18T04:46:57;27.53;;;19.43;;
5379;SDS011;2713;42.680;23.310;2023-09-18T04:49:25;24.53;;;18.73;;
5379;SDS011;2713;42.680;23.310;2023-09-18T04:51:54;24.90;;;17.20;;
5379;SDS011;2713;42.680;23.310;2023-09-18T04:54:22;22.73;;;18.23;;
5379;SDS011;2713;42.680;23.310;2023-09-18T04:56:48;21.67;;;16.90;;
5379;SDS011;2713;42.680;23.310;2023-09-18T04:59:15;25.40;;;17.83;;
5379;SDS011;2713;42.680;23.310;2023-09-18T05:01:42;28.10;;;18.17;;
5379;SDS011;2713;42.680;23.310;2023-09-18T05:04:09;28.90;;;18.10;;
5379;SDS011;2713;42.680;23.310;2023-09-18T05:06:36;25.50;;;18.03;;
5379;SDS011;2713;42.680;23.310;2023-09-18T05:09:05;25.13;;;17.57;;
5379;SDS011;2713;42.680;23.310;2023-09-18T05:11:32;25.83;;;18.07;;
5379;SDS011;2713;42.680;23.310;2023-09-18T05:13:59;25.40;;;16.97;;
5379;SDS011;2713;42.680;23.310;2023-09-18T05:16:26;24.00;;;18.87;;
5379;SDS011;2713;42.680;23.310;2023-09-18T05:18:53;28.33;;;17.87;;
5379;SDS011;2713;42.680;23.310;2023-09-18T05:21:20;26.20;;;17.30;;
5379;SDS011;2713;42.680;23.310;2023-09-18T05:23:50;22.53;;;18.07;;
5379;SDS011;2713;42.680;23.310;2023-09-18T05:26:18;24.50;;;18.47;;
5379;SDS011;2713;42.680;23.310;2023-09-18T05:28:48;26.73;;;19.43;;
5379;SDS011;2713;42.680;23.310;2023-09-18T05:31:15;28.63;;;18.27;;
5379;SDS011;2713;42.680;23.310;2023-09-18T05:33:42;23.37;;;18.87;;
5379;SDS011;2713;42.680;23.310;2023-09-18T05:36:13;23.40;;;17.70;;
5379;SDS011;2713;42.680;23.310;2023-09-18T05:38:40;23.63;;;17.07;;
5379;SDS011;2713;42.680;23.310;2023-09-18T05:41:08;24.67;;;18.50;;
5379;SDS011;2713;42.680;23.310;2023-09-18T05:43:36;25.00;;;18.57;;
5379;SDS011;2713;42.680;23.310;2023-09-18T05:46:03;26.40;;;18.33;;
5379;SDS011;2713;42.680;23.310;2023-09-18T05:48:30;23.40;;;18.27;;
5379;SDS011;2713;42.680;23.310;2023-09-18T05:50:57;25.80;;;18.20;;
5379;SDS011;2713;42.680;23.310;2023-09-18T05:53:24;24.40;;;19.27;;
5379;SDS011;2713;42.680;23.310;2023-09-18T05:55:51;23.40;;;18.00;;
5379;SDS011;2713;42.680;23.310;2023-09-18T05:58:17;23.87;;;18.77;;
5379;SDS011;2713;42.680;23.310;2023-09-18T06:00:51;22.73;;;17.63;;
5379;SDS011;2713;42.680;23.310;2023-09-18T06:03:18;25.17;;;19.83;;
5379;SDS011;2713;42.680;23.310;2023-09-18T06:05:45;25.80;;;19.27;;
5379;SDS011;2713;42.680;23.310;2023-09-18T06:08:13;24.10;;;18.77;;
5379;SDS011;2713;42.680;23.310;2023-09-18T06:10:40;25.67;;;18.20;;
5379;SDS011;2713;42.680;23.310;2023-09-18T06:13:07;24.33;;;17.17;;
5379;SDS011;2713;42.680;23.310;2023-09-18T06:15:33;29.60;;;19.40;;
5379;SDS011;2713;42.680;23.310;2023-09-18T06:18:02;24.07;;;18.40;;
5379;SDS011;2713;42.680;23.310;2023-09-18T06:20:31;27.70;;;19.00;;
5379;SDS011;2713;42.680;23.310;2023-09-18T06:22:58;24.33;;;17.87;;
5379;SDS011;2713;42.680;23.310;2023-09-18T06:25:25;23.00;;;16.27;;
5379;SDS011;2713;42.680;23.310;2023-09-18T06:27:51;23.20;;;17.87;;
5379;SDS011;2713;42.680;23.310;2023-09-18T06:30:18;24.73;;;18.00;;
5379;SDS011;2713;42.680;23.310;2023-09-18T06:32:45;21.17;;;16.73;;
5379;SDS011;2713;42.680;23.310;2023-09-18T06:35:13;22.70;;;17.20;;
5379;SDS011;2713;42.680;23.310;2023-09-18T06:37:40;27.33;;;17.37;;
5379;SDS011;2713;42.680;23.310;2023-09-18T06:40:07;23.60;;;16.50;;
5379;SDS011;2713;42.680;23.310;2023-09-18T06:42:35;23.33;;;17.50;;
5379;SDS011;2713;42.680;23.310;2023-09-18T06:45:03;24.40;;;16.83;;
5379;SDS011;2713;42.680;23.310;2023-09-18T06:47:32;22.80;;;17.23;;
5379;SDS011;2713;42.680;23.310;2023-09-18T06:49:58;20.93;;;14.33;;
5379;SDS011;2713;42.680;23.310;2023-09-18T06:52:27;19.20;;;14.37;;
5379;SDS011;2713;42.680;23.310;2023-09-18T06:54:54;19.40;;;14.40;;
5379;SDS011;2713;42.680;23.310;2023-09-18T06:57:23;19.93;;;15.13;;
5379;SDS011;2713;42.680;23.310;2023-09-18T06:59:50;20.33;;;15.10;;
5379;SDS011;2713;42.680;23.310;2023-09-18T07:02:18;18.50;;;14.97;;
5379;SDS011;2713;42.680;23.310;2023-09-18T07:04:44;18.23;;;15.07;;
5379;SDS011;2713;42.680;23.310;2023-09-18T07:07:11;17.93;;;14.00;;
5379;SDS011;2713;42.680;23.310;2023-09-18T07:09:40;18.50;;;14.50;;
5379;SDS011;2713;42.680;23.310;2023-09-18T07:12:07;19.67;;;14.03;;
5379;SDS011;2713;42.680;23.310;2023-09-18T07:14:35;18.33;;;13.43;;
5379;SDS011;2713;42.680;23.310;2023-09-18T07:17:03;20.03;;;14.27;;
5379;SDS011;2713;42.680;23.310;2023-09-18T07:19:30;19.33;;;14.90;;
5379;SDS011;2713;42.680;23.310;2023-09-18T07:21:57;18.67;;;13.93;;
5379;SDS011;2713;42.680;23.310;2023-09-18T07:24:24;22.07;;;14.90;;
5379;SDS011;2713;42.680;23.310;2023-09-18T07:26:52;18.93;;;14.40;;
5379;SDS011;2713;42.680;23.310;2023-09-18T07:29:20;19.63;;;14.37;;
5379;SDS011;2713;42.680;23.310;2023-09-18T07:31:47;20.00;;;13.90;;
5379;SDS011;2713;42.680;23.310;2023-09-18T07:34:14;18.50;;;14.57;;
5379;SDS011;2713;42.680;23.310;2023-09-18T07:36:42;17.60;;;14.27;;
5379;SDS011;2713;42.680;23.310;2023-09-18T07:39:09;21.33;;;15.43;;
5379;SDS011;2713;42.680;23.310;2023-09-18T07:41:36;18.20;;;15.93;;
5379;SDS011;2713;42.680;23.310;2023-09-18T07:44:06;25.40;;;15.40;;
5379;SDS011;2713;42.680;23.310;2023-09-18T07:46:33;19.10;;;14.93;;
5379;SDS011;2713;42.680;23.310;2023-09-18T07:49:00;21.07;;;15.67;;
5379;SDS011;2713;42.680;23.310;2023-09-18T07:51:27;19.53;;;14.90;;
5379;SDS011;2713;42.680;23.310;2023-09-18T07:53:53;19.80;;;17.10;;
5379;SDS011;2713;42.680;23.310;2023-09-18T07:56:20;18.80;;;15.80;;
5379;SDS011;2713;42.680;23.310;2023-09-18T07:58:47;24.23;;;15.97;;
5379;SDS011;2713;42.680;23.310;2023-09-18T08:01:15;18.37;;;14.57;;
5379;SDS011;2713;42.680;23.310;2023-09-18T08:03:42;16.27;;;14.13;;
5379;SDS011;2713;42.680;23.310;2023-09-18T08:06:09;19.23;;;14.33;;
5379;SDS011;2713;42.680;23.310;2023-09-18T08:08:36;19.70;;;14.00;;
5379;SDS011;2713;42.680;23.310;2023-09-18T08:11:07;16.60;;;13.83;;
5379;SDS011;2713;42.680;23.310;2023-09-18T08:13:35;17.40;;;14.27;;
5379;SDS011;2713;42.680;23.310;2023-09-18T08:16:02;18.47;;;14.83;;
5379;SDS011;2713;42.680;23.310;2023-09-18T08:18:31;16.93;;;15.07;;
5379;SDS011;2713;42.680;23.310;2023-09-18T08:20:58;18.60;;;15.30;;
5379;SDS011;2713;42.680;23.310;2023-09-18T08:23:25;21.00;;;15.27;;
5379;SDS011;2713;42.680;23.310;2023-09-18T08:25:52;18.20;;;14.90;;
5379;SDS011;2713;42.680;23.310;2023-09-18T08:28:21;16.90;;;13.60;;
5379;SDS011;2713;42.680;23.310;2023-09-18T08:30:48;21.00;;;14.83;;
5379;SDS011;2713;42.680;23.310;2023-09-18T08:33:15;16.07;;;13.27;;
5379;SDS011;2713;42.680;23.310;2023-09-18T08:35:43;17.30;;;13.20;;
5379;SDS011;2713;42.680;23.310;2023-09-18T08:38:12;19.67;;;14.77;;
5379;SDS011;2713;42.680;23.310;2023-09-18T08:40:40;16.30;;;13.40;;
5379;SDS011;2713;42.680;23.310;2023-09-18T08:43:07;15.50;;;13.53;;
5379;SDS011;2713;42.680;23.310;2023-09-18T08:45:35;15.00;;;13.40;;
5379;SDS011;2713;42.680;23.310;2023-09-18T08:48:06;14.00;;;12.40;;
5379;SDS011;2713;42.680;23.310;2023-09-18T08:50:33;16.70;;;14.10;;
5379;SDS011;2713;42.680;23.310;2023-09-18T08:53:02;16.60;;;14.20;;
5379;SDS011;2713;42.680;23.310;2023-09-18T08:55:29;16.03;;;13.60;;
5379;SDS011;2713;42.680;23.310;2023-09-18T08:57:58;16.67;;;13.43;;
5379;SDS011;2713;42.680;23.310;2023-09-18T09:00:26;18.30;;;14.60;;
5379;SDS011;2713;42.680;23.310;2023-09-18T09:02:57;14.50;;;13.00;;
5379;SDS011;2713;42.680;23.310;2023-09-18T09:05:24;13.53;;;11.67;;
5379;SDS011;2713;42.680;23.310;2023-09-18T09:07:51;16.47;;;12.87;;
5379;SDS011;2713;42.680;23.310;2023-09-18T09:10:19;15.70;;;12.57;;
5379;SDS011;2713;42.680;23.310;2023-09-18T09:12:47;14.93;;;13.37;;
5379;SDS011;2713;42.680;23.310;2023-09-18T09:15:14;15.33;;;12.57;;
5379;SDS011;2713;42.680;23.310;2023-09-18T09:17:41;14.97;;;11.97;;
5379;SDS011;2713;42.680;23.310;2023-09-18T09:20:09;13.33;;;11.80;;
5379;SDS011;2713;42.680;23.310;2023-09-18T09:22:37;16.17;;;12.30;;
5379;SDS011;2713;42.680;23.310;2023-09-18T09:25:11;12.70;;;11.40;;
5379;SDS011;2713;42.680;23.310;2023-09-18T09:27:51;11.90;;;9.40;;
5379;SDS011;2713;42.680;23.310;2023-09-18T09:30:19;12.47;;;9.80;;
5379;SDS011;2713;42.680;23.310;2023-09-18T09:32:47;12.57;;;11.00;;
5379;SDS011;2713;42.680;23.310;2023-09-18T09:35:25;14.73;;;11.23;;
5379;SDS011;2713;42.680;23.310;2023-09-18T09:37:54;11.43;;;10.20;;
5379;SDS011;2713;42.680;23.310;2023-09-18T09:40:25;13.73;;;10.63;;
5379;SDS011;2713;42.680;23.310;2023-09-18T09:43:04;11.67;;;10.47;;
5379;SDS011;2713;42.680;23.310;2023-09-18T09:45:41;14.43;;;10.87;;
5379;SDS011;2713;42.680;23.310;2023-09-18T09:52:05;13.87;;;11.80;;
5379;SDS011;2713;42.680;23.310;2023-09-18T09:54:46;14.97;;;10.73;;
5379;SDS011;2713;42.680;23.310;2023-09-18T10:00:13;14.90;;;11.10;;
5379;SDS011;2713;42.680;23.310;2023-09-18T10:02:53;14.30;;;11.07;;
5379;SDS011;2713;42.680;23.310;2023-09-18T10:05:24;14.83;;;10.83;;
5379;SDS011;2713;42.680;23.310;2023-09-18T10:07:57;14.10;;;10.83;;
5379;SDS011;2713;42.680;23.310;2023-09-18T10:10:26;12.10;;;9.97;;
5379;SDS011;2713;42.680;23.310;2023-09-18T10:12:58;14.70;;;12.13;;
5379;SDS011;2713;42.680;23.310;2023-09-18T10:15:29;10.73;;;9.73;;
5379;SDS011;2713;42.680;23.310;2023-09-18T10:18:05;13.13;;;10.23;;
5379;SDS011;2713;42.680;23.310;2023-09-18T10:20:39;17.97;;;10.67;;
5379;SDS011;2713;42.680;23.310;2023-09-18T10:23:12;12.40;;;10.47;;
5379;SDS011;2713;42.680;23.310;2023-09-18T10:25:50;11.13;;;9.93;;
5379;SDS011;2713;42.680;23.310;2023-09-18T10:28:22;11.07;;;9.80;;
5379;SDS011;2713;42.680;23.310;2023-09-18T10:30:51;9.90;;;8.90;;
5379;SDS011;2713;42.680;23.310;2023-09-18T10:33:19;13.80;;;9.37;;
5379;SDS011;2713;42.680;23.310;2023-09-18T10:35:46;10.87;;;9.47;;
5379;SDS011;2713;42.680;23.310;2023-09-18T10:38:15;10.80;;;9.70;;
5379;SDS011;2713;42.680;23.310;2023-09-18T10:40:44;12.73;;;10.03;;
5379;SDS011;2713;42.680;23.310;2023-09-18T10:43:15;12.57;;;8.87;;
5379;SDS011;2713;42.680;23.310;2023-09-18T10:45:44;9.30;;;8.40;;
5379;SDS011;2713;42.680;23.310;2023-09-18T10:48:11;10.63;;;9.00;;
5379;SDS011;2713;42.680;23.310;2023-09-18T10:50:40;10.13;;;9.00;;
5379;SDS011;2713;42.680;23.310;2023-09-18T10:53:11;10.37;;;9.23;;
5379;SDS011;2713;42.680;23.310;2023-09-18T10:55:38;9.10;;;8.20;;
5379;SDS011;2713;42.680;23.310;2023-09-18T10:58:08;8.37;;;7.63;;
5379;SDS011;2713;42.680;23.310;2023-09-18T11:00:35;10.87;;;9.00;;
5379;SDS011;2713;42.680;23.310;2023-09-18T11:03:14;9.60;;;8.70;;
5379;SDS011;2713;42.680;23.310;2023-09-18T11:05:43;9.57;;;8.43;;
5379;SDS011;2713;42.680;23.310;2023-09-18T11:08:27;8.93;;;8.03;;
5379;SDS011;2713;42.680;23.310;2023-09-18T11:10:59;12.20;;;8.57;;
5379;SDS011;2713;42.680;23.310;2023-09-18T11:13:30;8.50;;;7.70;;
5379;SDS011;2713;42.680;23.310;2023-09-18T11:16:00;8.53;;;7.67;;
5379;SDS011;2713;42.680;23.310;2023-09-18T11:18:33;9.80;;;7.80;;
5379;SDS011;2713;42.680;23.310;2023-09-18T11:21:06;9.07;;;8.17;;
5379;SDS011;2713;42.680;23.310;2023-09-18T11:23:35;8.70;;;7.90;;
5379;SDS011;2713;42.680;23.310;2023-09-18T11:26:03;9.17;;;8.20;;
5379;SDS011;2713;42.680;23.310;2023-09-18T11:28:31;8.90;;;8.10;;
5379;SDS011;2713;42.680;23.310;2023-09-18T11:30:58;9.10;;;8.20;;
5379;SDS011;2713;42.680;23.310;2023-09-18T11:33:30;9.53;;;8.50;;
5379;SDS011;2713;42.680;23.310;2023-09-18T11:36:02;10.37;;;8.40;;
5379;SDS011;2713;42.680;23.310;2023-09-18T11:38:32;8.47;;;7.67;;
5379;SDS011;2713;42.680;23.310;2023-09-18T11:41:01;8.53;;;7.73;;
5379;SDS011;2713;42.680;23.310;2023-09-18T11:43:46;7.70;;;7.00;;
5379;SDS011;2713;42.680;23.310;2023-09-18T11:46:13;7.90;;;7.20;;
5379;SDS011;2713;42.680;23.310;2023-09-18T11:48:44;8.90;;;8.10;;
5379;SDS011;2713;42.680;23.310;2023-09-18T11:51:20;7.97;;;7.17;;
5379;SDS011;2713;42.680;23.310;2023-09-18T11:53:49;8.23;;;7.43;;
5379;SDS011;2713;42.680;23.310;2023-09-18T11:56:20;9.27;;;8.20;;
5379;SDS011;2713;42.680;23.310;2023-09-18T11:58:47;9.00;;;8.10;;
5379;SDS011;2713;42.680;23.310;2023-09-18T12:01:15;8.40;;;7.60;;
5379;SDS011;2713;42.680;23.310;2023-09-18T12:03:42;9.93;;;7.40;;
5379;SDS011;2713;42.680;23.310;2023-09-18T12:06:10;9.10;;;8.20;;
5379;SDS011;2713;42.680;23.310;2023-09-18T12:08:40;8.73;;;7.93;;
5379;SDS011;2713;42.680;23.310;2023-09-18T12:11:07;7.87;;;7.17;;
5379;SDS011;2713;42.680;23.310;2023-09-18T12:13:34;8.00;;;7.20;;
5379;SDS011;2713;42.680;23.310;2023-09-18T12:16:02;8.10;;;6.80;;
5379;SDS011;2713;42.680;23.310;2023-09-18T12:18:31;8.27;;;7.47;;
5379;SDS011;2713;42.680;23.310;2023-09-18T12:21:06;7.87;;;6.87;;
5379;SDS011;2713;42.680;23.310;2023-09-18T12:23:37;7.40;;;6.27;;
5379;SDS011;2713;42.680;23.310;2023-09-18T12:26:06;7.90;;;6.90;;
5379;SDS011;2713;42.680;23.310;2023-09-18T12:28:34;7.97;;;7.27;;
5379;SDS011;2713;42.680;23.310;2023-09-18T12:31:01;8.00;;;7.20;;
5379;SDS011;2713;42.680;23.310;2023-09-18T12:33:33;9.23;;;7.60;;
5379;SDS011;2713;42.680;23.310;2023-09-18T12:36:00;7.93;;;7.23;;
5379;SDS011;2713;42.680;23.310;2023-09-18T12:38:28;8.20;;;7.40;;
5379;SDS011;2713;42.680;23.310;2023-09-18T12:40:55;8.50;;;7.63;;
5379;SDS011;2713;42.680;23.310;2023-09-18T12:43:33;7.90;;;7.20;;
5379;SDS011;2713;42.680;23.310;2023-09-18T12:46:02;8.37;;;7.53;;
5379;SDS011;2713;42.680;23.310;2023-09-18T12:48:30;9.30;;;7.70;;
5379;SDS011;2713;42.680;23.310;2023-09-18T12:51:02;8.83;;;7.80;;
5379;SDS011;2713;42.680;23.310;2023-09-18T12:53:30;8.40;;;7.60;;
5379;SDS011;2713;42.680;23.310;2023-09-18T12:56:04;11.20;;;7.60;;
5379;SDS011;2713;42.680;23.310;2023-09-18T12:58:33;9.00;;;7.57;;
5379;SDS011;2713;42.680;23.310;2023-09-18T13:01:03;8.63;;;7.87;;
5379;SDS011;2713;42.680;23.310;2023-09-18T13:03:35;8.73;;;7.60;;
5379;SDS011;2713;42.680;23.310;2023-09-18T13:06:08;8.40;;;7.60;;
5379;SDS011;2713;42.680;23.310;2023-09-18T13:08:37;11.90;;;7.80;;
5379;SDS011;2713;42.680;23.310;2023-09-18T13:11:04;8.60;;;7.80;;
5379;SDS011;2713;42.680;23.310;2023-09-18T13:13:31;8.77;;;7.87;;
5379;SDS011;2713;42.680;23.310;2023-09-18T13:16:00;10.50;;;7.30;;
5379;SDS011;2713;42.680;23.310;2023-09-18T13:18:31;11.00;;;8.37;;
5379;SDS011;2713;42.680;23.310;2023-09-18T13:20:58;10.23;;;8.50;;
5379;SDS011;2713;42.680;23.310;2023-09-18T13:23:29;8.90;;;7.90;;
5379;SDS011;2713;42.680;23.310;2023-09-18T13:25:59;9.53;;;7.10;;
5379;SDS011;2713;42.680;23.310;2023-09-18T13:28:28;9.57;;;8.57;;
5379;SDS011;2713;42.680;23.310;2023-09-18T13:30:56;8.50;;;7.70;;
5379;SDS011;2713;42.680;23.310;2023-09-18T13:33:26;8.87;;;8.07;;
5379;SDS011;2713;42.680;23.310;2023-09-18T13:35:53;8.73;;;7.80;;
5379;SDS011;2713;42.680;23.310;2023-09-18T13:38:21;8.63;;;7.83;;
5379;SDS011;2713;42.680;23.310;2023-09-18T13:40:48;9.33;;;8.40;;
5379;SDS011;2713;42.680;23.310;2023-09-18T13:43:15;8.40;;;7.60;;
5379;SDS011;2713;42.680;23.310;2023-09-18T13:45:43;7.87;;;7.10;;
5379;SDS011;2713;42.680;23.310;2023-09-18T13:48:10;8.37;;;7.57;;
5379;SDS011;2713;42.680;23.310;2023-09-18T13:50:39;8.87;;;8.07;;
5379;SDS011;2713;42.680;23.310;2023-09-18T13:53:06;8.40;;;7.60;;
5379;SDS011;2713;42.680;23.310;2023-09-18T13:55:33;10.63;;;7.90;;
5379;SDS011;2713;42.680;23.310;2023-09-18T13:58:00;9.20;;;8.00;;
5379;SDS011;2713;42.680;23.310;2023-09-18T14:00:29;7.53;;;6.80;;
5379;SDS011;2713;42.680;23.310;2023-09-18T14:02:56;10.27;;;7.30;;
5379;SDS011;2713;42.680;23.310;2023-09-18T14:05:23;9.00;;;7.77;;
5379;SDS011;2713;42.680;23.310;2023-09-18T14:07:53;10.30;;;7.53;;
5379;SDS011;2713;42.680;23.310;2023-09-18T14:10:24;7.83;;;7.03;;
5379;SDS011;2713;42.680;23.310;2023-09-18T14:12:52;7.93;;;7.10;;
5379;SDS011;2713;42.680;23.310;2023-09-18T14:15:19;7.80;;;7.10;;
5379;SDS011;2713;42.680;23.310;2023-09-18T14:17:46;8.10;;;7.30;;
5379;SDS011;2713;42.680;23.310;2023-09-18T14:20:13;8.47;;;7.60;;
5379;SDS011;2713;42.680;23.310;2023-09-18T14:22:43;7.47;;;6.87;;
5379;SDS011;2713;42.680;23.310;2023-09-18T14:25:11;8.97;;;7.67;;
5379;SDS011;2713;42.680;23.310;2023-09-18T14:27:39;8.40;;;7.50;;
5379;SDS011;2713;42.680;23.310;2023-09-18T14:30:06;9.10;;;8.10;;
5379;SDS011;2713;42.680;23.310;2023-09-18T14:32:35;12.63;;;8.57;;
5379;SDS011;2713;42.680;23.310;2023-09-18T14:35:02;8.37;;;7.57;;
5379;SDS011;2713;42.680;23.310;2023-09-18T14:37:30;7.67;;;6.97;;
5379;SDS011;2713;42.680;23.310;2023-09-18T14:39:57;8.90;;;7.30;;
5379;SDS011;2713;42.680;23.310;2023-09-18T14:42:26;9.43;;;7.10;;
5379;SDS011;2713;42.680;23.310;2023-09-18T14:44:53;9.33;;;7.13;;
5379;SDS011;2713;42.680;23.310;2023-09-18T14:47:20;7.90;;;7.10;;
5379;SDS011;2713;42.680;23.310;2023-09-18T14:49:47;9.80;;;7.70;;
5379;SDS011;2713;42.680;23.310;2023-09-18T14:52:14;8.53;;;7.50;;
5379;SDS011;2713;42.680;23.310;2023-09-18T14:54:42;9.60;;;7.10;;
5379;SDS011;2713;42.680;23.310;2023-09-18T14:57:09;9.73;;;7.90;;
5379;SDS011;2713;42.680;23.310;2023-09-18T14:59:37;7.47;;;6.77;;